createdAt,value
2017-05-05T00:02:17.912Z,87.90
2017-05-05T00:04:46.192Z,88.30
2017-05-05T00:07:14.468Z,88.30
2017-05-05T00:09:42.785Z,88.20
2017-05-05T00:12:11.060Z,88.50
2017-05-05T00:14:39.337Z,88.30
2017-05-05T00:17:07.665Z,88.90
2017-05-05T00:19:35.985Z,88.20
2017-05-05T00:22:05.012Z,88.40
2017-05-05T00:24:33.325Z,88.20
2017-05-05T00:27:01.627Z,88.70
2017-05-05T00:29:30.661Z,88.30
2017-05-05T00:31:58.983Z,88.10
2017-05-05T00:34:27.281Z,88.40
2017-05-05T00:36:56.311Z,88.40
2017-05-05T00:39:24.647Z,88.90
2017-05-05T00:41:52.937Z,88.60
2017-05-05T00:44:21.961Z,88.60
2017-05-05T00:46:50.277Z,89.50
2017-05-05T00:49:18.569Z,90.00
2017-05-05T00:51:47.596Z,91.00
2017-05-05T00:54:15.914Z,91.10
2017-05-05T00:56:44.197Z,91.50
2017-05-05T00:59:12.477Z,91.90
2017-05-05T01:01:40.793Z,92.40
2017-05-05T01:04:09.817Z,92.30
2017-05-05T01:06:38.102Z,92.60
2017-05-05T01:09:06.437Z,92.50
2017-05-05T01:11:35.456Z,92.20
2017-05-05T01:14:03.747Z,92.40
2017-05-05T01:16:32.074Z,92.30
2017-05-05T01:19:00.373Z,92.30
2017-05-05T01:21:29.389Z,92.80
2017-05-05T01:23:57.702Z,92.70
2017-05-05T01:26:25.981Z,92.70
2017-05-05T01:28:54.260Z,92.70
2017-05-05T01:31:22.585Z,92.60
2017-05-05T01:33:51.615Z,92.50
2017-05-05T01:36:19.891Z,92.80
2017-05-05T01:38:48.209Z,92.80
2017-05-05T01:41:16.485Z,92.70
2017-05-05T01:43:44.765Z,92.50
2017-05-05T01:46:13.090Z,92.30
2017-05-05T01:48:41.421Z,92.50
2017-05-05T01:51:09.706Z,92.40
2017-05-05T01:53:38.019Z,92.60
2017-05-05T01:56:06.304Z,92.70
2017-05-05T01:58:34.589Z,92.60
2017-05-05T02:01:06.589Z,92.80
2017-05-05T02:03:34.877Z,92.80
2017-05-05T02:06:03.161Z,93.00
2017-05-05T02:08:31.480Z,93.00
2017-05-05T02:10:59.770Z,93.00
2017-05-05T02:13:28.060Z,93.10
2017-05-05T02:15:56.381Z,93.30
2017-05-05T02:18:24.665Z,93.50
2017-05-05T02:20:53.688Z,93.90
2017-05-05T02:23:21.997Z,93.80
2017-05-05T02:25:50.279Z,93.80
2017-05-05T02:28:18.565Z,93.70
2017-05-05T02:30:46.891Z,93.90
2017-05-05T02:33:15.169Z,94.10
2017-05-05T02:35:44.191Z,93.90
2017-05-05T02:38:12.531Z,94.10
2017-05-05T02:40:41.549Z,94.10
2017-05-05T02:43:09.838Z,94.20
2017-05-05T02:45:38.145Z,94.40
2017-05-05T02:48:06.437Z,94.30
2017-05-05T02:50:34.716Z,94.30
2017-05-05T02:53:03.037Z,94.40
2017-05-05T02:55:31.320Z,94.40
2017-05-05T02:57:59.616Z,94.40
2017-05-05T03:00:28.010Z,94.40
2017-05-05T03:02:56.307Z,94.30
2017-05-05T03:05:24.593Z,94.30
2017-05-05T03:07:52.907Z,94.30
2017-05-05T03:10:21.194Z,94.10
2017-05-05T03:12:49.480Z,94.20
2017-05-05T03:15:17.801Z,94.20
2017-05-05T03:17:46.088Z,94.10
2017-05-05T03:20:14.369Z,94.20
2017-05-05T03:22:42.684Z,94.20
2017-05-05T03:25:10.969Z,94.10
2017-05-05T03:27:39.247Z,94.20
2017-05-05T03:30:07.580Z,94.20
2017-05-05T03:32:35.874Z,94.20
2017-05-05T03:35:04.889Z,94.60
2017-05-05T03:37:33.205Z,94.20
2017-05-05T03:40:01.490Z,94.10
2017-05-05T03:42:29.774Z,94.10
2017-05-05T03:44:58.096Z,94.10
2017-05-05T03:47:26.379Z,94.10
2017-05-05T03:49:54.665Z,94.10
2017-05-05T03:52:22.987Z,93.80
2017-05-05T03:54:51.272Z,93.80
2017-05-05T03:57:19.560Z,94.00
2017-05-05T03:59:48.622Z,94.10
2017-05-05T04:02:16.901Z,94.00
2017-05-05T04:04:45.183Z,94.00
2017-05-05T04:07:13.501Z,93.70
2017-05-05T04:09:42.525Z,93.60
2017-05-05T04:12:10.802Z,93.50
2017-05-05T04:14:39.131Z,93.80
2017-05-05T04:17:07.412Z,93.50
2017-05-05T04:19:35.697Z,93.30
2017-05-05T04:22:04.754Z,93.30
2017-05-05T04:24:33.037Z,93.30
2017-05-05T04:27:01.323Z,93.60
2017-05-05T04:29:29.648Z,93.30
2017-05-05T04:31:57.934Z,93.50
2017-05-05T04:34:26.212Z,93.20
2017-05-05T04:36:54.528Z,93.30
2017-05-05T04:39:22.813Z,93.30
2017-05-05T04:41:51.097Z,93.30
2017-05-05T04:44:19.421Z,93.20
2017-05-05T04:46:47.741Z,93.30
2017-05-05T04:49:16.023Z,92.90
2017-05-05T04:51:44.349Z,93.00
2017-05-05T04:54:13.374Z,92.70
2017-05-05T04:56:41.652Z,92.80
2017-05-05T04:59:09.956Z,92.90
2017-05-05T05:01:38.241Z,92.70
2017-05-05T05:04:06.522Z,92.70
2017-05-05T05:06:34.853Z,92.80
2017-05-05T05:09:03.139Z,92.60
2017-05-05T05:11:31.644Z,92.40
2017-05-05T05:13:59.975Z,92.70
2017-05-05T05:16:28.265Z,92.20
2017-05-05T05:18:56.540Z,92.10
2017-05-05T05:21:24.862Z,92.20
2017-05-05T05:23:53.140Z,92.10
2017-05-05T05:26:21.428Z,92.00
2017-05-05T05:28:49.744Z,91.50
2017-05-05T05:31:18.775Z,91.10
2017-05-05T05:33:47.057Z,91.10
2017-05-05T05:36:15.393Z,91.50
2017-05-05T05:38:44.426Z,90.80
2017-05-05T05:41:12.711Z,90.50
2017-05-05T05:43:41.024Z,89.90
2017-05-05T05:46:09.299Z,90.10
2017-05-05T05:48:37.580Z,89.00
2017-05-05T05:51:05.909Z,86.10
2017-05-05T05:53:34.201Z,87.10
2017-05-05T05:56:02.478Z,87.00
2017-05-05T05:58:30.802Z,85.80
2017-05-05T06:00:59.828Z,84.50
2017-05-05T06:03:28.125Z,84.90
2017-05-05T06:05:56.457Z,84.60
2017-05-05T06:08:25.485Z,83.10
2017-05-05T06:10:53.768Z,81.70
2017-05-05T06:13:22.099Z,84.00
2017-05-05T06:15:50.382Z,83.30
2017-05-05T06:18:18.671Z,82.10
2017-05-05T06:20:47.746Z,82.70
2017-05-05T06:23:16.057Z,81.70
2017-05-05T06:25:44.361Z,81.80
2017-05-05T06:28:12.676Z,80.70
2017-05-05T06:30:40.969Z,81.80
2017-05-05T06:33:09.248Z,81.60
2017-05-05T06:35:37.581Z,81.10
2017-05-05T06:38:05.867Z,82.00
2017-05-05T06:40:34.152Z,80.60
2017-05-05T06:43:02.478Z,80.00
2017-05-05T06:45:31.508Z,77.90
2017-05-05T06:47:59.812Z,78.10
2017-05-05T06:50:28.177Z,76.70
2017-05-05T06:52:56.484Z,72.00
2017-05-05T06:55:24.776Z,69.60
2017-05-05T06:57:53.829Z,68.80
2017-05-05T07:00:22.190Z,67.60
2017-05-05T07:02:50.478Z,67.80
2017-05-05T07:05:18.792Z,69.50
2017-05-05T07:07:47.105Z,65.80
2017-05-05T07:10:15.386Z,69.00
2017-05-05T07:12:43.718Z,69.40
2017-05-05T07:15:12.008Z,65.90
2017-05-05T07:17:40.293Z,68.60
2017-05-05T07:20:08.613Z,68.90
2017-05-05T07:22:36.909Z,70.80
2017-05-05T07:25:05.201Z,72.60
2017-05-05T07:27:33.526Z,74.40
2017-05-05T07:30:02.552Z,71.10
2017-05-05T07:32:30.838Z,70.50
2017-05-05T07:34:59.168Z,68.50
2017-05-05T07:37:28.192Z,66.30
2017-05-05T07:39:56.890Z,66.80
2017-05-05T07:42:25.217Z,66.20
2017-05-05T07:44:53.514Z,69.80
2017-05-05T07:47:22.550Z,67.30
2017-05-05T07:49:50.883Z,67.10
2017-05-05T07:52:19.941Z,67.60
2017-05-05T07:54:48.239Z,65.60
2017-05-05T07:57:16.581Z,67.60
2017-05-05T07:59:44.866Z,64.80
2017-05-05T08:02:13.150Z,64.10
2017-05-05T08:04:41.457Z,65.10
2017-05-05T08:07:09.748Z,64.80
2017-05-05T08:09:38.826Z,65.20
2017-05-05T08:12:07.116Z,62.80
2017-05-05T08:14:36.157Z,63.00
2017-05-05T08:17:04.467Z,65.30
2017-05-05T08:19:32.759Z,63.50
2017-05-05T08:22:01.081Z,64.90
2017-05-05T08:24:29.382Z,64.70
2017-05-05T08:26:57.661Z,65.30
2017-05-05T08:29:25.972Z,66.50
2017-05-05T08:31:54.267Z,65.50
2017-05-05T08:34:23.326Z,66.80
2017-05-05T08:36:51.608Z,64.70
2017-05-05T08:39:19.897Z,65.00
2017-05-05T08:41:48.226Z,64.70
2017-05-05T08:44:16.522Z,62.90
2017-05-05T08:46:44.835Z,62.80
2017-05-05T08:49:13.114Z,63.80
2017-05-05T08:51:41.404Z,60.90
2017-05-05T08:54:09.716Z,59.70
2017-05-05T08:56:38.021Z,56.10
2017-05-05T08:59:06.333Z,54.30
2017-05-05T09:01:34.636Z,52.40
2017-05-05T09:04:02.918Z,50.00
2017-05-05T09:06:31.220Z,52.30
2017-05-05T09:08:59.510Z,52.50
2017-05-05T09:11:27.816Z,53.30
2017-05-05T09:13:56.105Z,54.40
2017-05-05T09:16:24.401Z,54.00
2017-05-05T09:18:53.455Z,56.20
2017-05-05T09:21:21.741Z,57.50
2017-05-05T09:23:50.062Z,59.30
2017-05-05T09:26:18.353Z,60.10
2017-05-05T09:28:46.641Z,61.10
2017-05-05T09:31:14.945Z,61.00
2017-05-05T09:33:44.003Z,63.00
2017-05-05T09:36:12.345Z,63.00
2017-05-05T09:38:40.638Z,63.20
2017-05-05T09:41:09.669Z,63.90
2017-05-05T09:43:37.968Z,64.30
2017-05-05T09:46:06.254Z,64.20
2017-05-05T09:48:34.580Z,64.70
2017-05-05T09:51:02.861Z,65.70
2017-05-05T09:53:31.149Z,65.40
2017-05-05T09:55:59.457Z,64.30
2017-05-05T09:58:27.740Z,64.10
2017-05-05T10:00:56.053Z,63.50
2017-05-05T10:03:25.089Z,63.50
2017-05-05T10:05:53.378Z,62.20
2017-05-05T10:08:21.681Z,61.90
2017-05-05T10:10:49.970Z,61.50
2017-05-05T10:13:18.290Z,62.80
2017-05-05T10:15:46.586Z,62.70
2017-05-05T10:18:14.892Z,61.50
2017-05-05T10:20:43.209Z,60.70
2017-05-05T10:23:11.497Z,59.50
2017-05-05T10:25:39.833Z,58.00
2017-05-05T10:28:08.112Z,58.70
2017-05-05T10:30:36.397Z,58.30
2017-05-05T10:33:04.729Z,57.90
2017-05-05T10:35:33.017Z,57.00
2017-05-05T10:38:01.298Z,58.20
2017-05-05T10:40:29.636Z,56.70
2017-05-05T10:42:58.673Z,56.50
2017-05-05T10:45:26.985Z,56.20
2017-05-05T10:47:55.306Z,56.00
2017-05-05T10:50:23.596Z,53.80
2017-05-05T10:52:51.893Z,53.60
2017-05-05T10:55:20.227Z,50.20
2017-05-05T10:57:49.249Z,47.20
2017-05-05T11:00:17.553Z,47.00
2017-05-05T11:02:45.885Z,46.20
2017-05-05T11:05:14.175Z,42.30
2017-05-05T11:07:42.466Z,40.10
2017-05-05T11:10:10.794Z,42.90
2017-05-05T11:12:39.828Z,41.10
2017-05-05T11:15:08.116Z,40.10
2017-05-05T11:17:36.454Z,40.90
2017-05-05T11:20:05.485Z,40.80
2017-05-05T11:22:33.776Z,39.60
2017-05-05T11:25:02.105Z,43.00
2017-05-05T11:27:31.124Z,43.30
2017-05-05T11:29:59.421Z,42.40
2017-05-05T11:32:27.774Z,42.70
2017-05-05T11:34:56.069Z,44.80
2017-05-05T11:37:24.358Z,44.20
2017-05-05T11:39:52.689Z,43.40
2017-05-05T11:42:21.739Z,44.70
2017-05-05T11:44:50.043Z,43.70
2017-05-05T11:47:18.363Z,45.00
2017-05-05T11:49:46.654Z,41.80
2017-05-05T11:52:14.941Z,41.90
2017-05-05T11:54:43.274Z,41.50
2017-05-05T11:57:12.309Z,41.30
2017-05-05T11:59:40.613Z,41.90
2017-05-05T12:02:08.942Z,44.60
2017-05-05T12:04:37.972Z,44.70
2017-05-05T12:07:06.580Z,46.30
2017-05-05T12:09:34.868Z,45.30
2017-05-05T12:12:03.164Z,43.90
2017-05-05T12:14:31.490Z,44.80
2017-05-05T12:16:59.784Z,43.80
2017-05-05T12:19:28.101Z,41.40
2017-05-05T12:21:57.136Z,40.30
2017-05-05T12:24:25.458Z,39.10
2017-05-05T12:26:53.749Z,38.70
2017-05-05T12:29:22.098Z,36.80
2017-05-05T12:31:50.433Z,37.50
2017-05-05T12:34:20.086Z,40.20
2017-05-05T12:36:48.405Z,40.30
2017-05-05T12:39:17.437Z,38.10
2017-05-05T12:41:45.738Z,37.30
2017-05-05T12:44:14.037Z,39.20
2017-05-05T12:46:42.361Z,38.10
2017-05-05T12:49:10.654Z,36.50
2017-05-05T12:51:38.984Z,38.20
2017-05-05T12:54:07.279Z,38.60
2017-05-05T12:56:36.318Z,40.00
2017-05-05T12:59:04.657Z,40.00
2017-05-05T13:01:32.956Z,41.30
2017-05-05T13:04:01.246Z,42.30
2017-05-05T13:06:29.554Z,40.80
2017-05-05T13:08:57.845Z,37.80
2017-05-05T13:11:26.153Z,38.20
2017-05-05T13:13:54.448Z,38.40
2017-05-05T13:16:22.772Z,36.70
2017-05-05T13:18:51.067Z,37.50
2017-05-05T13:21:20.096Z,36.40
2017-05-05T13:23:48.429Z,34.60
2017-05-05T13:26:16.727Z,35.90
2017-05-05T13:28:45.754Z,35.20
2017-05-05T13:31:14.076Z,34.00
2017-05-05T13:33:42.363Z,35.90
2017-05-05T13:36:10.684Z,34.80
2017-05-05T13:38:39.029Z,34.10
2017-05-05T13:41:08.069Z,33.70
2017-05-05T13:43:36.369Z,34.80
2017-05-05T13:46:04.693Z,34.00
2017-05-05T13:48:33.737Z,35.20
2017-05-05T13:51:02.029Z,33.90
2017-05-05T13:53:30.353Z,33.10
2017-05-05T13:55:58.637Z,34.50
2017-05-05T13:58:26.928Z,32.90
2017-05-05T14:00:55.270Z,33.30
2017-05-05T14:03:24.307Z,33.30
2017-05-05T14:05:52.605Z,33.90
2017-05-05T14:08:20.925Z,33.20
2017-05-05T14:10:49.962Z,31.30
2017-05-05T14:13:18.245Z,31.30
2017-05-05T14:15:46.589Z,32.60
2017-05-05T14:18:15.627Z,33.60
2017-05-05T14:20:43.917Z,34.90
2017-05-05T14:23:12.259Z,36.40
2017-05-05T14:25:40.547Z,36.50
2017-05-05T14:28:08.852Z,37.20
2017-05-05T14:30:37.174Z,35.60
2017-05-05T14:33:05.472Z,35.50
2017-05-05T14:35:33.843Z,35.40
2017-05-05T14:38:02.183Z,36.90
2017-05-05T14:40:31.249Z,37.70
2017-05-05T14:42:59.545Z,36.80
2017-05-05T14:45:27.876Z,35.60
2017-05-05T14:47:56.169Z,34.50
2017-05-05T14:50:24.456Z,35.70
2017-05-05T14:52:52.778Z,33.90
2017-05-05T14:55:21.064Z,33.60
2017-05-05T14:57:49.367Z,33.00
2017-05-05T15:00:17.717Z,32.60
2017-05-05T15:02:46.005Z,32.20
2017-05-05T15:05:15.028Z,31.10
2017-05-05T15:07:43.337Z,31.30
2017-05-05T15:10:11.622Z,32.70
2017-05-05T15:12:39.917Z,32.80
2017-05-05T15:15:08.245Z,34.00
2017-05-05T15:17:36.536Z,34.40
2017-05-05T15:20:04.825Z,33.00
2017-05-05T15:22:33.149Z,34.10
2017-05-05T15:25:02.179Z,34.00
2017-05-05T15:27:30.467Z,34.90
2017-05-05T15:29:58.794Z,35.20
2017-05-05T15:32:27.827Z,35.40
2017-05-05T15:34:56.137Z,35.10
2017-05-05T15:37:24.457Z,37.10
2017-05-05T15:39:53.492Z,38.10
2017-05-05T15:42:21.781Z,39.00
2017-05-05T15:44:50.112Z,39.10
2017-05-05T15:47:19.144Z,40.90
2017-05-05T15:49:47.441Z,37.30
2017-05-05T15:52:15.785Z,39.80
2017-05-05T15:54:44.081Z,38.80
2017-05-05T15:57:12.377Z,39.30
2017-05-05T15:59:40.710Z,39.90
2017-05-05T16:02:09.009Z,41.50
2017-05-05T16:04:37.317Z,42.20
2017-05-05T16:07:05.645Z,43.30
2017-05-05T16:09:33.936Z,41.50
2017-05-05T16:12:02.237Z,41.20
2017-05-05T16:14:30.554Z,41.20
2017-05-05T16:16:58.845Z,41.60
2017-05-05T16:19:27.878Z,40.60
2017-05-05T16:21:56.201Z,41.20
2017-05-05T16:24:24.500Z,41.00
2017-05-05T16:26:53.557Z,40.30
2017-05-05T16:29:21.901Z,41.00
2017-05-05T16:31:50.189Z,41.20
2017-05-05T16:34:18.478Z,41.20
2017-05-05T16:36:46.819Z,41.20
2017-05-05T16:39:15.858Z,41.20
2017-05-05T16:41:44.174Z,39.60
2017-05-05T16:44:13.272Z,39.40
2017-05-05T16:46:42.303Z,40.40
2017-05-05T16:49:10.596Z,40.40
2017-05-05T16:51:38.916Z,41.00
2017-05-05T16:54:07.200Z,42.70
2017-05-05T16:56:35.491Z,43.80
2017-05-05T16:59:03.816Z,45.20
2017-05-05T17:01:32.097Z,45.10
2017-05-05T17:04:00.378Z,45.70
2017-05-05T17:06:28.693Z,47.60
2017-05-05T17:08:57.029Z,46.90
2017-05-05T17:11:25.320Z,48.80
2017-05-05T17:13:53.647Z,48.30
2017-05-05T17:16:22.676Z,49.30
2017-05-05T17:18:50.954Z,50.10
2017-05-05T17:21:19.277Z,48.90
2017-05-05T17:23:47.556Z,50.00
2017-05-05T17:26:15.836Z,49.90
2017-05-05T17:28:44.161Z,49.60
2017-05-05T17:31:12.441Z,49.80
2017-05-05T17:33:40.734Z,50.90
2017-05-05T17:36:09.066Z,50.10
2017-05-05T17:38:38.093Z,50.30
2017-05-05T17:41:09.389Z,52.60
2017-05-05T17:43:37.699Z,50.90
2017-05-05T17:46:05.994Z,52.60
2017-05-05T17:48:34.313Z,51.70
2017-05-05T17:51:02.599Z,52.30
2017-05-05T17:53:30.888Z,51.90
2017-05-05T17:55:59.966Z,52.10
2017-05-05T17:58:28.246Z,53.30
2017-05-05T18:00:56.524Z,54.00
2017-05-05T18:03:24.844Z,53.20
2017-05-05T18:05:53.125Z,54.50
2017-05-05T18:08:21.414Z,54.80
2017-05-05T18:10:49.745Z,55.80
2017-05-05T18:13:18.036Z,54.90
2017-05-05T18:15:47.070Z,55.00
2017-05-05T18:18:15.397Z,53.30
2017-05-05T18:20:43.705Z,53.60
2017-05-05T18:23:12.724Z,53.70
2017-05-05T18:25:41.041Z,54.10
2017-05-05T18:28:09.329Z,53.60
2017-05-05T18:30:37.623Z,52.50
2017-05-05T18:33:06.680Z,53.30
2017-05-05T18:35:34.972Z,53.30
2017-05-05T18:38:03.272Z,54.90
2017-05-05T18:40:31.594Z,55.10
2017-05-05T18:42:59.878Z,54.10
2017-05-05T18:45:28.174Z,54.20
2017-05-05T18:47:56.495Z,54.50
2017-05-05T18:50:25.520Z,54.40
2017-05-05T18:52:53.801Z,55.40
2017-05-05T18:55:22.131Z,55.40
2017-05-05T18:57:50.422Z,53.30
2017-05-05T19:00:19.444Z,54.00
2017-05-05T19:02:47.768Z,54.10
2017-05-05T19:05:16.054Z,54.40
2017-05-05T19:07:44.347Z,55.10
2017-05-05T19:10:13.418Z,55.90
2017-05-05T19:12:41.727Z,56.30
2017-05-05T19:15:10.758Z,57.10
2017-05-05T19:17:39.080Z,57.70
2017-05-05T19:20:07.360Z,58.00
2017-05-05T19:22:35.641Z,58.20
2017-05-05T19:25:03.958Z,58.40
2017-05-05T19:27:32.236Z,58.50
2017-05-05T19:30:00.518Z,58.40
2017-05-05T19:32:30.023Z,58.60
2017-05-05T19:34:58.328Z,59.20
2017-05-05T19:37:26.612Z,59.90
2017-05-05T19:39:54.920Z,60.00
2017-05-05T19:42:23.204Z,59.80
2017-05-05T19:44:52.255Z,61.00
2017-05-05T19:47:20.598Z,61.90
2017-05-05T19:49:48.893Z,63.40
2017-05-05T19:52:17.182Z,63.80
2017-05-05T19:54:45.514Z,64.80
2017-05-05T19:57:14.541Z,67.10
2017-05-05T19:59:42.826Z,67.60
2017-05-05T20:02:11.149Z,68.30
2017-05-05T20:04:39.456Z,68.60
2017-05-05T20:07:07.759Z,69.80
2017-05-05T20:09:36.077Z,70.30
2017-05-05T20:12:04.354Z,71.20
2017-05-05T20:14:32.669Z,72.50
2017-05-05T20:17:00.986Z,73.80
2017-05-05T20:19:29.257Z,74.10
2017-05-05T20:21:57.537Z,74.00
2017-05-05T20:24:25.943Z,74.50
2017-05-05T20:26:54.235Z,76.00
2017-05-05T20:29:22.513Z,76.70
2017-05-05T20:31:50.841Z,76.50
2017-05-05T20:34:19.138Z,76.00
2017-05-05T20:36:47.415Z,74.90
2017-05-05T20:39:15.748Z,74.70
2017-05-05T20:41:44.768Z,74.70
2017-05-05T20:44:13.874Z,76.30
2017-05-05T20:46:42.480Z,76.70
2017-05-05T20:49:10.763Z,77.10
2017-05-05T20:51:39.044Z,77.60
2017-05-05T20:54:07.573Z,77.90
2017-05-05T20:56:36.593Z,79.60
2017-05-05T20:59:04.877Z,81.00
2017-05-05T21:01:33.488Z,81.90
2017-05-05T21:04:01.765Z,83.00
2017-05-05T21:06:30.041Z,83.30
2017-05-05T21:08:58.620Z,83.90
2017-05-05T21:11:26.905Z,84.20
2017-05-05T21:13:55.181Z,83.90
2017-05-05T21:16:23.764Z,84.30
2017-05-05T21:18:52.047Z,84.60
2017-05-05T21:21:20.328Z,85.50
2017-05-05T21:23:48.910Z,86.50
2017-05-05T21:26:17.192Z,86.30
2017-05-05T21:28:45.469Z,87.30
2017-05-05T21:31:13.997Z,88.60
2017-05-05T21:33:42.281Z,89.90
2017-05-05T21:36:10.565Z,89.70
2017-05-05T21:38:39.185Z,90.10
2017-05-05T21:41:07.585Z,90.30
2017-05-05T21:43:35.892Z,90.50
2017-05-05T21:46:05.264Z,90.40
2017-05-05T21:48:36.489Z,90.40
2017-05-05T21:51:04.873Z,90.40
2017-05-05T21:53:33.465Z,90.30
2017-05-05T21:56:01.752Z,90.50
2017-05-05T21:58:30.037Z,90.90
2017-05-05T22:00:58.566Z,91.20
2017-05-05T22:03:26.847Z,91.60
2017-05-05T22:05:55.129Z,91.80
2017-05-05T22:08:23.741Z,92.10
2017-05-05T22:10:52.030Z,92.00
2017-05-05T22:13:20.315Z,92.00
2017-05-05T22:15:48.633Z,92.20
2017-05-05T22:18:16.924Z,92.30
2017-05-05T22:20:45.216Z,92.40
2017-05-05T22:23:13.546Z,92.50
2017-05-05T22:25:42.570Z,92.60
2017-05-05T22:28:10.850Z,92.70
2017-05-05T22:30:39.172Z,92.70
2017-05-05T22:33:07.450Z,92.70
2017-05-05T22:35:35.764Z,92.70
2017-05-05T22:38:04.822Z,93.20
2017-05-05T22:40:33.108Z,93.20
2017-05-05T22:43:01.395Z,93.20
2017-05-05T22:45:29.709Z,93.20
2017-05-05T22:47:57.997Z,93.30
2017-05-05T22:50:26.283Z,93.30
2017-05-05T22:52:53.914Z,93.20
2017-05-05T22:55:22.940Z,93.40
2017-05-05T22:57:51.219Z,93.60
2017-05-05T23:00:19.544Z,93.70
2017-05-05T23:02:47.825Z,93.80
2017-05-05T23:05:16.869Z,94.00
2017-05-05T23:07:45.211Z,93.90
2017-05-05T23:10:14.232Z,94.00
2017-05-05T23:12:42.512Z,94.10
2017-05-05T23:15:10.822Z,94.00
2017-05-05T23:17:39.110Z,94.10
2017-05-05T23:20:07.389Z,94.10
2017-05-05T23:22:35.692Z,94.20
2017-05-05T23:25:04.721Z,94.40
2017-05-05T23:27:32.993Z,94.50
2017-05-05T23:30:01.312Z,94.60
2017-05-05T23:32:29.596Z,94.50
2017-05-05T23:34:57.883Z,94.50
2017-05-05T23:37:26.196Z,94.50
2017-05-05T23:39:54.481Z,94.80
2017-05-05T23:42:22.773Z,94.60
2017-05-05T23:44:51.096Z,94.60
2017-05-05T23:47:19.440Z,94.60
2017-05-05T23:49:47.708Z,94.80
2017-05-05T23:52:16.018Z,94.90
2017-05-05T23:54:44.298Z,95.10
2017-05-05T23:57:12.572Z,94.80
2017-05-05T23:59:40.890Z,94.80
